PWSweather.com
Personal Weather Stations
Station Observations
WD4JKH
Forsyth, GA 31029

Forsyth, GA 31029

Lat: 33.033225, Lon: -83.927995

Elevation: 709

Station Type: Davis Vantage VUE

High Low Average
Temperature 55.0°F12.8°C 49.1°F9.5°C 51.2°F10.7°C
Dew Point 54.7°F12.6°C 48.1°F8.9°C 50.3°F10.2°C
Winds 6.8 mph 10.9 kmh Calm Calm 3.0 mph E4.8 kmh E
Wind Gusts 13.0 mph20.9 kmh 2.0 mph3.2 kmh 7.0 mph11.3 kmh
Humidity 99% 89% 97%
Pressure 30.00 in1015.9 mb 29.87 in1011.5 mb -
Precipitation 0.16 in4.1 mm - -
Hour Temp Dew Point Humidity Winds Wind Gusts Pressure Precip Precip Rate Daily Precip Total
12:00 AM 51.9°F11.1°C 49.0°F9.4°C 90% 1.3 mph NNW2.1 kmh NNW 6.0 mph9.7 kmh 29.87 in1011.5 mb 0.00 in0.0 mm 0.00 in0.0 mm 0.16 in4.1 mm
12:05 AM 51.9°F11.1°C 49.0°F9.4°C 90% 2.1 mph NNW3.4 kmh NNW 5.0 mph8.0 kmh 29.87 in1011.5 mb 0.00 in0.0 mm 0.00 in0.0 mm 0.00 in0.0 mm
12:10 AM 51.8°F11.0°C 49.0°F9.4°C 90% 1.5 mph NNW2.4 kmh NNW 5.0 mph8.0 kmh 29.87 in1011.5 mb 0.00 in0.0 mm 0.00 in0.0 mm 0.00 in0.0 mm
12:15 AM 51.8°F11.0°C 49.0°F9.4°C 90% 1.2 mph NNW1.9 kmh NNW 5.0 mph8.0 kmh 29.87 in1011.5 mb 0.00 in0.0 mm 0.00 in0.0 mm 0.00 in0.0 mm
12:20 AM 51.8°F11.0°C 48.9°F9.4°C 90% 1.2 mph N1.9 kmh N 5.0 mph8.0 kmh 29.87 in1011.5 mb 0.00 in0.0 mm 0.00 in0.0 mm 0.00 in0.0 mm
12:25 AM 51.7°F10.9°C 48.5°F9.2°C 89% 2.8 mph N4.5 kmh N 5.0 mph8.0 kmh 29.87 in1011.5 mb 0.00 in0.0 mm 0.00 in0.0 mm 0.00 in0.0 mm
12:30 AM 51.7°F10.9°C 48.5°F9.2°C 89% 3.3 mph NNE5.3 kmh NNE 6.0 mph9.7 kmh 29.87 in1011.5 mb 0.00 in0.0 mm 0.00 in0.0 mm 0.00 in0.0 mm
12:35 AM 51.7°F10.9°C 48.5°F9.2°C 89% 2.9 mph NNE4.7 kmh NNE 6.0 mph9.7 kmh 29.87 in1011.5 mb 0.00 in0.0 mm 0.00 in0.0 mm 0.00 in0.0 mm
12:40 AM 51.6°F10.9°C 48.4°F9.1°C 89% 3.1 mph N5.0 kmh N 6.0 mph9.7 kmh 29.88 in1011.9 mb 0.00 in0.0 mm 0.00 in0.0 mm 0.00 in0.0 mm
12:45 AM 51.6°F10.9°C 48.4°F9.1°C 89% 3.4 mph N5.5 kmh N 6.0 mph9.7 kmh 29.87 in1011.5 mb 0.00 in0.0 mm 0.00 in0.0 mm 0.00 in0.0 mm
12:50 AM 51.6°F10.9°C 48.4°F9.1°C 89% 3.6 mph N5.8 kmh N 6.0 mph9.7 kmh 29.88 in1011.9 mb 0.00 in0.0 mm 0.00 in0.0 mm 0.00 in0.0 mm
12:55 AM 51.5°F10.8°C 48.3°F9.1°C 89% 3.1 mph NE5.0 kmh NE 7.0 mph11.3 kmh 29.88 in1011.9 mb 0.00 in0.0 mm 0.00 in0.0 mm 0.00 in0.0 mm
01:00 AM 51.4°F10.8°C 48.3°F9.1°C 89% 2.6 mph NNE4.2 kmh NNE 7.0 mph11.3 kmh 29.88 in1011.9 mb 0.00 in0.0 mm 0.00 in0.0 mm 0.00 in0.0 mm
01:05 AM 51.3°F10.7°C 48.4°F9.1°C 90% 2.3 mph NNE3.7 kmh NNE 7.0 mph11.3 kmh 29.88 in1011.9 mb 0.00 in0.0 mm 0.00 in0.0 mm 0.00 in0.0 mm
01:10 AM 51.3°F10.7°C 48.1°F8.9°C 89% 3.6 mph NNE5.8 kmh NNE 8.0 mph12.9 kmh 29.88 in1011.9 mb 0.00 in0.0 mm 0.00 in0.0 mm 0.00 in0.0 mm
01:14 AM 51.2°F10.7°C 48.3°F9.1°C 90% 3.0 mph NE4.8 kmh NE 8.0 mph12.9 kmh 29.88 in1011.9 mb 0.00 in0.0 mm 0.00 in0.0 mm 0.00 in0.0 mm
01:19 AM 51.2°F10.7°C 48.3°F9.1°C 90% 3.5 mph NE5.6 kmh NE 8.0 mph12.9 kmh 29.88 in1011.9 mb 0.00 in0.0 mm 0.00 in0.0 mm 0.00 in0.0 mm
01:24 AM 51.2°F10.7°C 48.3°F9.1°C 90% 4.4 mph NE7.1 kmh NE 8.0 mph12.9 kmh 29.89 in1012.2 mb 0.00 in0.0 mm 0.00 in0.0 mm 0.00 in0.0 mm
01:29 AM 51.2°F10.7°C 48.3°F9.1°C 90% 2.8 mph NNE4.5 kmh NNE 8.0 mph12.9 kmh 29.89 in1012.2 mb 0.00 in0.0 mm 0.00 in0.0 mm 0.00 in0.0 mm
01:34 AM 51.1°F10.6°C 48.3°F9.1°C 90% 5.5 mph NE8.9 kmh NE 8.0 mph12.9 kmh 29.89 in1012.2 mb 0.00 in0.0 mm 0.00 in0.0 mm 0.00 in0.0 mm
01:39 AM 51.1°F10.6°C 48.3°F9.1°C 90% 6.6 mph NE10.6 kmh NE 9.0 mph14.5 kmh 29.89 in1012.2 mb 0.00 in0.0 mm 0.00 in0.0 mm 0.00 in0.0 mm
01:44 AM 51.1°F10.6°C 48.2°F9.0°C 90% 3.8 mph NE6.1 kmh NE 9.0 mph14.5 kmh 29.89 in1012.2 mb 0.00 in0.0 mm 0.00 in0.0 mm 0.00 in0.0 mm
01:49 AM 51.0°F10.6°C 48.5°F9.2°C 91% 3.9 mph NE6.3 kmh NE 9.0 mph14.5 kmh 29.88 in1011.9 mb 0.00 in0.0 mm 0.00 in0.0 mm 0.00 in0.0 mm
01:54 AM 51.0°F10.6°C 48.4°F9.1°C 91% 3.9 mph NE6.3 kmh NE 9.0 mph14.5 kmh 29.87 in1011.5 mb 0.00 in0.0 mm 0.00 in0.0 mm 0.00 in0.0 mm
01:59 AM 51.0°F10.6°C 48.4°F9.1°C 91% 5.3 mph NE8.5 kmh NE 9.0 mph14.5 kmh 29.88 in1011.9 mb 0.00 in0.0 mm 0.00 in0.0 mm 0.00 in0.0 mm
02:04 AM 50.9°F10.5°C 48.4°F9.1°C 91% 3.1 mph NE5.0 kmh NE 8.0 mph12.9 kmh 29.88 in1011.9 mb 0.00 in0.0 mm 0.00 in0.0 mm 0.00 in0.0 mm
02:09 AM 50.9°F10.5°C 48.6°F9.2°C 92% 3.4 mph NE5.5 kmh NE 8.0 mph12.9 kmh 29.88 in1011.9 mb 0.00 in0.0 mm 0.00 in0.0 mm 0.00 in0.0 mm
02:14 AM 50.8°F10.4°C 48.5°F9.2°C 92% 2.8 mph NE4.5 kmh NE 8.0 mph12.9 kmh 29.88 in1011.9 mb 0.00 in0.0 mm 0.00 in0.0 mm 0.00 in0.0 mm
02:19 AM 50.9°F10.5°C 48.9°F9.4°C 93% 4.6 mph NE7.4 kmh NE 8.0 mph12.9 kmh 29.87 in1011.5 mb 0.00 in0.0 mm 0.00 in0.0 mm 0.00 in0.0 mm
02:24 AM 51.0°F10.6°C 49.0°F9.4°C 93% 3.7 mph NE6.0 kmh NE 8.0 mph12.9 kmh 29.87 in1011.5 mb 0.00 in0.0 mm 0.00 in0.0 mm 0.00 in0.0 mm
02:29 AM 51.0°F10.6°C 49.0°F9.4°C 93% 4.7 mph ENE7.6 kmh ENE 8.0 mph12.9 kmh 29.87 in1011.5 mb 0.00 in0.0 mm 0.00 in0.0 mm 0.00 in0.0 mm
02:34 AM 51.0°F10.6°C 49.0°F9.4°C 93% 3.0 mph NE4.8 kmh NE 8.0 mph12.9 kmh 29.88 in1011.9 mb 0.00 in0.0 mm 0.00 in0.0 mm 0.00 in0.0 mm
02:39 AM 51.1°F10.6°C 49.1°F9.5°C 93% 3.0 mph NE4.8 kmh NE 8.0 mph12.9 kmh 29.87 in1011.5 mb 0.00 in0.0 mm 0.00 in0.0 mm 0.00 in0.0 mm
02:44 AM 51.1°F10.6°C 49.1°F9.5°C 93% 2.1 mph NE3.4 kmh NE 8.0 mph12.9 kmh 29.88 in1011.9 mb 0.00 in0.0 mm 0.00 in0.0 mm 0.00 in0.0 mm
02:49 AM 51.1°F10.6°C 49.1°F9.5°C 93% 4.2 mph ENE6.8 kmh ENE 7.0 mph11.3 kmh 29.87 in1011.5 mb 0.00 in0.0 mm 0.00 in0.0 mm 0.00 in0.0 mm
02:54 AM 51.1°F10.6°C 49.4°F9.7°C 94% 2.6 mph ENE4.2 kmh ENE 7.0 mph11.3 kmh 29.88 in1011.9 mb 0.00 in0.0 mm 0.00 in0.0 mm 0.00 in0.0 mm
02:59 AM 51.1°F10.6°C 49.4°F9.7°C 94% 2.3 mph NE3.7 kmh NE 7.0 mph11.3 kmh 29.88 in1011.9 mb 0.00 in0.0 mm 0.00 in0.0 mm 0.00 in0.0 mm
03:04 AM 51.1°F10.6°C 49.4°F9.7°C 94% 3.3 mph ENE5.3 kmh ENE 7.0 mph11.3 kmh 29.88 in1011.9 mb 0.00 in0.0 mm 0.00 in0.0 mm 0.00 in0.0 mm
03:09 AM 51.1°F10.6°C 49.4°F9.7°C 94% 3.1 mph ENE5.0 kmh ENE 7.0 mph11.3 kmh 29.88 in1011.9 mb 0.00 in0.0 mm 0.00 in0.0 mm 0.00 in0.0 mm
03:14 AM 51.1°F10.6°C 49.4°F9.7°C 94% 2.7 mph NE4.3 kmh NE 7.0 mph11.3 kmh 29.88 in1011.9 mb 0.00 in0.0 mm 0.00 in0.0 mm 0.00 in0.0 mm
03:19 AM 51.1°F10.6°C 49.4°F9.7°C 94% 2.2 mph ENE3.5 kmh ENE 7.0 mph11.3 kmh 29.88 in1011.9 mb 0.00 in0.0 mm 0.00 in0.0 mm 0.00 in0.0 mm
03:24 AM 51.0°F10.6°C 49.3°F9.6°C 94% 2.6 mph ENE4.2 kmh ENE 7.0 mph11.3 kmh 29.88 in1011.9 mb 0.00 in0.0 mm 0.00 in0.0 mm 0.00 in0.0 mm
03:29 AM 51.1°F10.6°C 49.4°F9.7°C 94% 1.9 mph ENE3.1 kmh ENE 6.0 mph9.7 kmh 29.88 in1011.9 mb 0.00 in0.0 mm 0.00 in0.0 mm 0.00 in0.0 mm
03:34 AM 51.1°F10.6°C 49.4°F9.7°C 94% 3.0 mph ENE4.8 kmh ENE 6.0 mph9.7 kmh 29.88 in1011.9 mb 0.00 in0.0 mm 0.00 in0.0 mm 0.00 in0.0 mm
03:39 AM 51.1°F10.6°C 49.4°F9.7°C 94% 2.0 mph ENE3.2 kmh ENE 6.0 mph9.7 kmh 29.88 in1011.9 mb 0.00 in0.0 mm 0.00 in0.0 mm 0.00 in0.0 mm
03:44 AM 51.0°F10.6°C 49.6°F9.8°C 95% 2.7 mph NE4.3 kmh NE 7.0 mph11.3 kmh 29.88 in1011.9 mb 0.00 in0.0 mm 0.00 in0.0 mm 0.00 in0.0 mm
03:49 AM 51.0°F10.6°C 49.6°F9.8°C 95% 2.6 mph ENE4.2 kmh ENE 7.0 mph11.3 kmh 29.88 in1011.9 mb 0.00 in0.0 mm 0.00 in0.0 mm 0.00 in0.0 mm
03:54 AM 51.0°F10.6°C 49.6°F9.8°C 95% 2.5 mph NE4.0 kmh NE 7.0 mph11.3 kmh 29.88 in1011.9 mb 0.00 in0.0 mm 0.00 in0.0 mm 0.00 in0.0 mm
03:59 AM 51.0°F10.6°C 49.6°F9.8°C 95% 3.2 mph NE5.1 kmh NE 7.0 mph11.3 kmh 29.88 in1011.9 mb 0.00 in0.0 mm 0.00 in0.0 mm 0.00 in0.0 mm
04:04 AM 51.0°F10.6°C 49.6°F9.8°C 95% 3.3 mph NE5.3 kmh NE 6.0 mph9.7 kmh 29.88 in1011.9 mb 0.00 in0.0 mm 0.00 in0.0 mm 0.00 in0.0 mm
04:09 AM 51.0°F10.6°C 49.6°F9.8°C 95% 2.1 mph ENE3.4 kmh ENE 6.0 mph9.7 kmh 29.89 in1012.2 mb 0.00 in0.0 mm 0.00 in0.0 mm 0.00 in0.0 mm
04:14 AM 51.0°F10.6°C 49.6°F9.8°C 95% 1.8 mph NE2.9 kmh NE 6.0 mph9.7 kmh 29.88 in1011.9 mb 0.00 in0.0 mm 0.00 in0.0 mm 0.00 in0.0 mm
04:19 AM 51.0°F10.6°C 49.6°F9.8°C 95% 2.2 mph NE3.5 kmh NE 6.0 mph9.7 kmh 29.89 in1012.2 mb 0.00 in0.0 mm 0.00 in0.0 mm 0.00 in0.0 mm
04:24 AM 51.0°F10.6°C 49.6°F9.8°C 95% 4.5 mph NE7.2 kmh NE 9.0 mph14.5 kmh 29.88 in1011.9 mb 0.00 in0.0 mm 0.00 in0.0 mm 0.00 in0.0 mm
04:29 AM 50.9°F10.5°C 49.5°F9.7°C 95% 3.5 mph ENE5.6 kmh ENE 9.0 mph14.5 kmh 29.88 in1011.9 mb 0.00 in0.0 mm 0.00 in0.0 mm 0.00 in0.0 mm
04:34 AM 50.9°F10.5°C 49.5°F9.7°C 95% 5.2 mph ENE8.4 kmh ENE 9.0 mph14.5 kmh 29.87 in1011.5 mb 0.00 in0.0 mm 0.00 in0.0 mm 0.00 in0.0 mm
04:39 AM 50.9°F10.5°C 49.5°F9.7°C 95% 4.4 mph ENE7.1 kmh ENE 9.0 mph14.5 kmh 29.88 in1011.9 mb 0.00 in0.0 mm 0.00 in0.0 mm 0.00 in0.0 mm
04:44 AM 50.9°F10.5°C 49.5°F9.7°C 95% 2.7 mph ENE4.3 kmh ENE 9.0 mph14.5 kmh 29.89 in1012.2 mb 0.00 in0.0 mm 0.00 in0.0 mm 0.00 in0.0 mm
04:49 AM 50.9°F10.5°C 49.5°F9.7°C 95% 4.3 mph ENE6.9 kmh ENE 9.0 mph14.5 kmh 29.90 in1012.5 mb 0.00 in0.0 mm 0.00 in0.0 mm 0.00 in0.0 mm
04:54 AM 50.9°F10.5°C 49.5°F9.7°C 95% 1.8 mph ENE2.9 kmh ENE 8.0 mph12.9 kmh 29.90 in1012.5 mb 0.00 in0.0 mm 0.00 in0.0 mm 0.00 in0.0 mm
04:59 AM 50.8°F10.4°C 49.4°F9.7°C 95% 3.8 mph ENE6.1 kmh ENE 8.0 mph12.9 kmh 29.89 in1012.2 mb 0.00 in0.0 mm 0.00 in0.0 mm 0.00 in0.0 mm
05:04 AM 50.8°F10.4°C 49.4°F9.7°C 95% 3.0 mph E4.8 kmh E 8.0 mph12.9 kmh 29.88 in1011.9 mb 0.00 in0.0 mm 0.00 in0.0 mm 0.00 in0.0 mm
05:09 AM 50.8°F10.4°C 49.4°F9.7°C 95% 1.6 mph ENE2.6 kmh ENE 8.0 mph12.9 kmh 29.89 in1012.2 mb 0.00 in0.0 mm 0.00 in0.0 mm 0.00 in0.0 mm
05:14 AM 50.7°F10.4°C 49.3°F9.6°C 95% 3.4 mph ENE5.5 kmh ENE 8.0 mph12.9 kmh 29.89 in1012.2 mb 0.00 in0.0 mm 0.00 in0.0 mm 0.00 in0.0 mm
05:19 AM 50.7°F10.4°C 49.3°F9.6°C 95% 3.8 mph ENE6.1 kmh ENE 8.0 mph12.9 kmh 29.90 in1012.5 mb 0.00 in0.0 mm 0.00 in0.0 mm 0.00 in0.0 mm
05:24 AM 50.7°F10.4°C 49.6°F9.8°C 96% 4.8 mph E7.7 kmh E 8.0 mph12.9 kmh 29.90 in1012.5 mb 0.00 in0.0 mm 0.00 in0.0 mm 0.00 in0.0 mm
05:29 AM 50.7°F10.4°C 49.6°F9.8°C 96% 2.7 mph ENE4.3 kmh ENE 8.0 mph12.9 kmh 29.90 in1012.5 mb 0.00 in0.0 mm 0.00 in0.0 mm 0.00 in0.0 mm
05:34 AM 50.6°F10.3°C 49.5°F9.7°C 96% 5.3 mph E8.5 kmh E 10.0 mph16.1 kmh 29.89 in1012.2 mb 0.00 in0.0 mm 0.00 in0.0 mm 0.00 in0.0 mm
05:39 AM 50.4°F10.2°C 49.3°F9.6°C 96% 4.7 mph ENE7.6 kmh ENE 10.0 mph16.1 kmh 29.90 in1012.5 mb 0.00 in0.0 mm 0.00 in0.0 mm 0.00 in0.0 mm
05:44 AM 50.4°F10.2°C 49.3°F9.6°C 96% 2.8 mph ENE4.5 kmh ENE 10.0 mph16.1 kmh 29.90 in1012.5 mb 0.00 in0.0 mm 0.00 in0.0 mm 0.00 in0.0 mm
05:49 AM 50.3°F10.2°C 49.2°F9.6°C 96% 2.7 mph ENE4.3 kmh ENE 10.0 mph16.1 kmh 29.92 in1013.2 mb 0.00 in0.0 mm 0.00 in0.0 mm 0.00 in0.0 mm
05:54 AM 50.3°F10.2°C 49.2°F9.6°C 96% 3.3 mph E5.3 kmh E 10.0 mph16.1 kmh 29.91 in1012.9 mb 0.00 in0.0 mm 0.00 in0.0 mm 0.00 in0.0 mm
05:59 AM 50.2°F10.1°C 49.1°F9.5°C 96% 4.9 mph E7.9 kmh E 9.0 mph14.5 kmh 29.92 in1013.2 mb 0.00 in0.0 mm 0.00 in0.0 mm 0.00 in0.0 mm
06:04 AM 50.2°F10.1°C 49.1°F9.5°C 96% 3.9 mph ENE6.3 kmh ENE 9.0 mph14.5 kmh 29.92 in1013.2 mb 0.00 in0.0 mm 0.00 in0.0 mm 0.00 in0.0 mm
06:09 AM 50.2°F10.1°C 49.1°F9.5°C 96% 2.4 mph E3.9 kmh E 9.0 mph14.5 kmh 29.92 in1013.2 mb 0.00 in0.0 mm 0.00 in0.0 mm 0.00 in0.0 mm
06:14 AM 50.2°F10.1°C 49.1°F9.5°C 96% 4.4 mph E7.1 kmh E 9.0 mph14.5 kmh 29.92 in1013.2 mb 0.00 in0.0 mm 0.00 in0.0 mm 0.00 in0.0 mm
06:19 AM 50.1°F10.1°C 49.0°F9.4°C 96% 4.1 mph E6.6 kmh E 8.0 mph12.9 kmh 29.92 in1013.2 mb 0.00 in0.0 mm 0.00 in0.0 mm 0.00 in0.0 mm
06:24 AM 50.1°F10.1°C 49.0°F9.4°C 96% 5.8 mph E9.3 kmh E 8.0 mph12.9 kmh 29.93 in1013.5 mb 0.00 in0.0 mm 0.00 in0.0 mm 0.00 in0.0 mm
06:29 AM 50.1°F10.1°C 49.0°F9.4°C 96% 5.2 mph E8.4 kmh E 9.0 mph14.5 kmh 29.93 in1013.5 mb 0.00 in0.0 mm 0.00 in0.0 mm 0.00 in0.0 mm
06:34 AM 50.1°F10.1°C 49.3°F9.6°C 97% 2.7 mph E4.3 kmh E 9.0 mph14.5 kmh 29.93 in1013.5 mb 0.00 in0.0 mm 0.00 in0.0 mm 0.00 in0.0 mm
06:39 AM 50.1°F10.1°C 49.3°F9.6°C 97% 2.3 mph E3.7 kmh E 9.0 mph14.5 kmh 29.93 in1013.5 mb 0.00 in0.0 mm 0.00 in0.0 mm 0.00 in0.0 mm
06:44 AM 50.0°F10.0°C 49.2°F9.6°C 97% 6.5 mph E10.5 kmh E 9.0 mph14.5 kmh 29.92 in1013.2 mb 0.00 in0.0 mm 0.00 in0.0 mm 0.00 in0.0 mm
06:49 AM 49.9°F9.9°C 49.1°F9.5°C 97% 6.8 mph E10.9 kmh E 11.0 mph17.7 kmh 29.92 in1013.2 mb 0.00 in0.0 mm 0.00 in0.0 mm 0.00 in0.0 mm
06:54 AM 49.9°F9.9°C 49.1°F9.5°C 97% 3.2 mph E5.1 kmh E 11.0 mph17.7 kmh 29.92 in1013.2 mb 0.00 in0.0 mm 0.00 in0.0 mm 0.00 in0.0 mm
06:59 AM 49.9°F9.9°C 49.1°F9.5°C 97% 2.1 mph E3.4 kmh E 11.0 mph17.7 kmh 29.93 in1013.5 mb 0.00 in0.0 mm 0.00 in0.0 mm 0.00 in0.0 mm
07:04 AM 49.9°F9.9°C 49.1°F9.5°C 97% 4.0 mph E6.4 kmh E 11.0 mph17.7 kmh 29.93 in1013.5 mb 0.00 in0.0 mm 0.00 in0.0 mm 0.00 in0.0 mm
07:09 AM 49.8°F9.9°C 49.0°F9.4°C 97% 3.8 mph E6.1 kmh E 9.0 mph14.5 kmh 29.93 in1013.5 mb 0.00 in0.0 mm 0.00 in0.0 mm 0.00 in0.0 mm
07:14 AM 49.8°F9.9°C 49.0°F9.4°C 97% 1.9 mph NE3.1 kmh NE 9.0 mph14.5 kmh 29.94 in1013.9 mb 0.00 in0.0 mm 0.00 in0.0 mm 0.00 in0.0 mm
07:19 AM 49.8°F9.9°C 49.0°F9.4°C 97% 3.5 mph ENE5.6 kmh ENE 9.0 mph14.5 kmh 29.94 in1013.9 mb 0.00 in0.0 mm 0.00 in0.0 mm 0.00 in0.0 mm
07:24 AM 49.7°F9.8°C 48.9°F9.4°C 97% 5.8 mph E9.3 kmh E 10.0 mph16.1 kmh 29.94 in1013.9 mb 0.00 in0.0 mm 0.00 in0.0 mm 0.00 in0.0 mm
07:29 AM 49.7°F9.8°C 48.9°F9.4°C 97% 2.5 mph E4.0 kmh E 10.0 mph16.1 kmh 29.95 in1014.2 mb 0.00 in0.0 mm 0.00 in0.0 mm 0.00 in0.0 mm
07:34 AM 49.7°F9.8°C 48.9°F9.4°C 97% 5.2 mph E8.4 kmh E 10.0 mph16.1 kmh 29.95 in1014.2 mb 0.00 in0.0 mm 0.00 in0.0 mm 0.00 in0.0 mm
07:39 AM 49.7°F9.8°C 48.9°F9.4°C 97% 4.2 mph E6.8 kmh E 10.0 mph16.1 kmh 29.95 in1014.2 mb 0.00 in0.0 mm 0.00 in0.0 mm 0.00 in0.0 mm
07:44 AM 49.7°F9.8°C 48.9°F9.4°C 97% 4.7 mph ENE7.6 kmh ENE 8.0 mph12.9 kmh 29.94 in1013.9 mb 0.00 in0.0 mm 0.00 in0.0 mm 0.00 in0.0 mm
07:49 AM 49.6°F9.8°C 48.8°F9.3°C 97% 6.6 mph ENE10.6 kmh ENE 11.0 mph17.7 kmh 29.94 in1013.9 mb 0.00 in0.0 mm 0.00 in0.0 mm 0.00 in0.0 mm
07:54 AM 49.5°F9.7°C 48.7°F9.3°C 97% 6.2 mph E10.0 kmh E 11.0 mph17.7 kmh 29.95 in1014.2 mb 0.00 in0.0 mm 0.00 in0.0 mm 0.00 in0.0 mm
07:59 AM 49.5°F9.7°C 48.7°F9.3°C 97% 3.3 mph ENE5.3 kmh ENE 11.0 mph17.7 kmh 29.95 in1014.2 mb 0.00 in0.0 mm 0.00 in0.0 mm 0.00 in0.0 mm
08:04 AM 49.5°F9.7°C 48.7°F9.3°C 97% 4.2 mph ENE6.8 kmh ENE 11.0 mph17.7 kmh 29.95 in1014.2 mb 0.00 in0.0 mm 0.00 in0.0 mm 0.00 in0.0 mm
08:09 AM 49.5°F9.7°C 48.7°F9.3°C 97% 3.6 mph ENE5.8 kmh ENE 9.0 mph14.5 kmh 29.96 in1014.6 mb 0.00 in0.0 mm 0.00 in0.0 mm 0.00 in0.0 mm
08:14 AM 49.6°F9.8°C 48.8°F9.3°C 97% 2.2 mph ENE3.5 kmh ENE 9.0 mph14.5 kmh 29.96 in1014.6 mb 0.00 in0.0 mm 0.00 in0.0 mm 0.00 in0.0 mm
08:19 AM 49.6°F9.8°C 49.0°F9.4°C 98% 1.3 mph ENE2.1 kmh ENE 9.0 mph14.5 kmh 29.96 in1014.6 mb 0.00 in0.0 mm 0.00 in0.0 mm 0.00 in0.0 mm
08:24 AM 49.6°F9.8°C 49.0°F9.4°C 98% 3.0 mph ENE4.8 kmh ENE 7.0 mph11.3 kmh 29.96 in1014.6 mb 0.00 in0.0 mm 0.00 in0.0 mm 0.00 in0.0 mm
08:29 AM 49.5°F9.7°C 49.0°F9.4°C 98% 2.9 mph ENE4.7 kmh ENE 6.0 mph9.7 kmh 29.97 in1014.9 mb 0.00 in0.0 mm 0.00 in0.0 mm 0.00 in0.0 mm
08:34 AM 49.5°F9.7°C 49.0°F9.4°C 98% 3.5 mph NE5.6 kmh NE 8.0 mph12.9 kmh 29.97 in1014.9 mb 0.00 in0.0 mm 0.00 in0.0 mm 0.00 in0.0 mm
08:39 AM 49.4°F9.7°C 48.8°F9.3°C 98% 3.8 mph ENE6.1 kmh ENE 10.0 mph16.1 kmh 29.97 in1014.9 mb 0.00 in0.0 mm 0.00 in0.0 mm 0.00 in0.0 mm
08:44 AM 49.4°F9.7°C 48.8°F9.3°C 98% 3.8 mph E6.1 kmh E 10.0 mph16.1 kmh 29.97 in1014.9 mb 0.00 in0.0 mm 0.00 in0.0 mm 0.00 in0.0 mm
08:49 AM 49.4°F9.7°C 48.8°F9.3°C 98% 2.6 mph E4.2 kmh E 10.0 mph16.1 kmh 29.97 in1014.9 mb 0.00 in0.0 mm 0.00 in0.0 mm 0.00 in0.0 mm
08:54 AM 49.4°F9.7°C 48.9°F9.4°C 98% 4.1 mph E6.6 kmh E 8.0 mph12.9 kmh 29.97 in1014.9 mb 0.00 in0.0 mm 0.00 in0.0 mm 0.00 in0.0 mm
08:59 AM 49.4°F9.7°C 48.9°F9.4°C 98% 2.6 mph E4.2 kmh E 8.0 mph12.9 kmh 29.97 in1014.9 mb 0.00 in0.0 mm 0.00 in0.0 mm 0.00 in0.0 mm
09:04 AM 49.4°F9.7°C 48.9°F9.4°C 98% 4.6 mph ENE7.4 kmh ENE 10.0 mph16.1 kmh 29.96 in1014.6 mb 0.00 in0.0 mm 0.00 in0.0 mm 0.00 in0.0 mm
09:09 AM 49.3°F9.6°C 48.7°F9.3°C 98% 6.0 mph E9.7 kmh E 13.0 mph20.9 kmh 29.96 in1014.6 mb 0.00 in0.0 mm 0.00 in0.0 mm 0.00 in0.0 mm
09:14 AM 49.5°F9.7°C 48.9°F9.4°C 98% 2.4 mph E3.9 kmh E 13.0 mph20.9 kmh 29.97 in1014.9 mb 0.00 in0.0 mm 0.00 in0.0 mm 0.00 in0.0 mm
09:19 AM 49.4°F9.7°C 48.8°F9.3°C 98% 3.3 mph E5.3 kmh E 13.0 mph20.9 kmh 29.96 in1014.6 mb 0.00 in0.0 mm 0.00 in0.0 mm 0.00 in0.0 mm
09:24 AM 49.3°F9.6°C 48.7°F9.3°C 98% 6.2 mph E10.0 kmh E 13.0 mph20.9 kmh 29.96 in1014.6 mb 0.00 in0.0 mm 0.00 in0.0 mm 0.00 in0.0 mm
09:29 AM 49.3°F9.6°C 48.7°F9.3°C 98% 5.7 mph E9.2 kmh E 9.0 mph14.5 kmh 29.96 in1014.6 mb 0.00 in0.0 mm 0.00 in0.0 mm 0.00 in0.0 mm
09:35 AM 49.3°F9.6°C 48.7°F9.3°C 98% 2.6 mph ENE4.2 kmh ENE 9.0 mph14.5 kmh 29.96 in1014.6 mb 0.00 in0.0 mm 0.00 in0.0 mm 0.00 in0.0 mm
09:39 AM 49.3°F9.6°C 48.8°F9.3°C 98% 6.2 mph E10.0 kmh E 10.0 mph16.1 kmh 29.96 in1014.6 mb 0.00 in0.0 mm 0.00 in0.0 mm 0.00 in0.0 mm
09:45 AM 49.1°F9.5°C 48.5°F9.2°C 98% 5.4 mph E8.7 kmh E 10.0 mph16.1 kmh 29.96 in1014.6 mb 0.00 in0.0 mm 0.00 in0.0 mm 0.00 in0.0 mm
09:49 AM 49.2°F9.6°C 48.7°F9.3°C 98% 3.8 mph ENE6.1 kmh ENE 10.0 mph16.1 kmh 29.96 in1014.6 mb 0.00 in0.0 mm 0.00 in0.0 mm 0.00 in0.0 mm
09:55 AM 49.3°F9.6°C 48.8°F9.3°C 98% 3.1 mph E5.0 kmh E 10.0 mph16.1 kmh 29.96 in1014.6 mb 0.00 in0.0 mm 0.00 in0.0 mm 0.00 in0.0 mm
10:00 AM 49.2°F9.6°C 48.6°F9.2°C 98% 4.7 mph E7.6 kmh E 9.0 mph14.5 kmh 29.96 in1014.6 mb 0.00 in0.0 mm 0.00 in0.0 mm 0.00 in0.0 mm
10:05 AM 49.2°F9.6°C 48.6°F9.2°C 98% 4.9 mph E7.9 kmh E 8.0 mph12.9 kmh 29.96 in1014.6 mb 0.00 in0.0 mm 0.00 in0.0 mm 0.00 in0.0 mm
10:10 AM 49.2°F9.6°C 48.6°F9.2°C 98% 3.3 mph ENE5.3 kmh ENE 8.0 mph12.9 kmh 29.97 in1014.9 mb 0.00 in0.0 mm 0.00 in0.0 mm 0.00 in0.0 mm
10:15 AM 49.2°F9.6°C 48.7°F9.3°C 98% 2.1 mph ENE3.4 kmh ENE 8.0 mph12.9 kmh 29.97 in1014.9 mb 0.00 in0.0 mm 0.00 in0.0 mm 0.00 in0.0 mm
10:20 AM 49.2°F9.6°C 48.6°F9.2°C 98% 4.8 mph ENE7.7 kmh ENE 8.0 mph12.9 kmh 29.98 in1015.2 mb 0.00 in0.0 mm 0.00 in0.0 mm 0.00 in0.0 mm
10:25 AM 49.2°F9.6°C 48.6°F9.2°C 98% 2.3 mph E3.7 kmh E 7.0 mph11.3 kmh 29.98 in1015.2 mb 0.00 in0.0 mm 0.00 in0.0 mm 0.00 in0.0 mm
10:30 AM 49.2°F9.6°C 48.6°F9.2°C 98% 3.5 mph ENE5.6 kmh ENE 7.0 mph11.3 kmh 29.98 in1015.2 mb 0.00 in0.0 mm 0.00 in0.0 mm 0.00 in0.0 mm
10:35 AM 49.2°F9.6°C 48.6°F9.2°C 98% 4.1 mph E6.6 kmh E 7.0 mph11.3 kmh 29.98 in1015.2 mb 0.00 in0.0 mm 0.00 in0.0 mm 0.00 in0.0 mm
10:40 AM 49.3°F9.6°C 48.7°F9.3°C 98% 3.3 mph ENE5.3 kmh ENE 8.0 mph12.9 kmh 29.98 in1015.2 mb 0.00 in0.0 mm 0.00 in0.0 mm 0.00 in0.0 mm
10:45 AM 49.3°F9.6°C 48.7°F9.3°C 98% 5.2 mph E8.4 kmh E 8.0 mph12.9 kmh 29.98 in1015.2 mb 0.00 in0.0 mm 0.00 in0.0 mm 0.00 in0.0 mm
10:50 AM 49.4°F9.7°C 48.9°F9.4°C 98% 6.2 mph E10.0 kmh E 8.0 mph12.9 kmh 29.98 in1015.2 mb 0.00 in0.0 mm 0.00 in0.0 mm 0.00 in0.0 mm
10:55 AM 49.3°F9.6°C 48.7°F9.3°C 98% 3.8 mph E6.1 kmh E 9.0 mph14.5 kmh 29.98 in1015.2 mb 0.00 in0.0 mm 0.00 in0.0 mm 0.00 in0.0 mm
11:00 AM 49.3°F9.6°C 48.8°F9.3°C 98% 3.0 mph E4.8 kmh E 9.0 mph14.5 kmh 29.98 in1015.2 mb 0.00 in0.0 mm 0.00 in0.0 mm 0.00 in0.0 mm
11:05 AM 49.4°F9.7°C 48.9°F9.4°C 98% 3.6 mph E5.8 kmh E 9.0 mph14.5 kmh 29.98 in1015.2 mb 0.00 in0.0 mm 0.00 in0.0 mm 0.00 in0.0 mm
11:10 AM 49.5°F9.7°C 48.9°F9.4°C 98% 3.6 mph E5.8 kmh E 9.0 mph14.5 kmh 29.98 in1015.2 mb 0.00 in0.0 mm 0.00 in0.0 mm 0.00 in0.0 mm
11:15 AM 49.5°F9.7°C 48.9°F9.4°C 98% 3.6 mph E5.8 kmh E 9.0 mph14.5 kmh 29.98 in1015.2 mb 0.00 in0.0 mm 0.00 in0.0 mm 0.00 in0.0 mm
11:20 AM 49.5°F9.7°C 48.9°F9.4°C 98% 2.3 mph E3.7 kmh E 7.0 mph11.3 kmh 29.99 in1015.6 mb 0.00 in0.0 mm 0.00 in0.0 mm 0.00 in0.0 mm
11:25 AM 49.6°F9.8°C 49.0°F9.4°C 98% 1.7 mph E2.7 kmh E 7.0 mph11.3 kmh 29.99 in1015.6 mb 0.00 in0.0 mm 0.00 in0.0 mm 0.00 in0.0 mm
11:30 AM 49.6°F9.8°C 49.0°F9.4°C 98% 2.1 mph ESE3.4 kmh ESE 7.0 mph11.3 kmh 29.99 in1015.6 mb 0.00 in0.0 mm 0.00 in0.0 mm 0.00 in0.0 mm
11:35 AM 49.7°F9.8°C 49.1°F9.5°C 98% 2.6 mph ENE4.2 kmh ENE 6.0 mph9.7 kmh 30.00 in1015.9 mb 0.00 in0.0 mm 0.00 in0.0 mm 0.00 in0.0 mm
11:40 AM 49.6°F9.8°C 49.0°F9.4°C 98% 2.1 mph E3.4 kmh E 5.0 mph8.0 kmh 30.00 in1015.9 mb 0.00 in0.0 mm 0.00 in0.0 mm 0.00 in0.0 mm
11:45 AM 49.7°F9.8°C 49.2°F9.6°C 98% 2.1 mph E3.4 kmh E 5.0 mph8.0 kmh 30.00 in1015.9 mb 0.00 in0.0 mm 0.00 in0.0 mm 0.00 in0.0 mm
11:50 AM 49.7°F9.8°C 49.1°F9.5°C 98% 2.9 mph E4.7 kmh E 5.0 mph8.0 kmh 29.99 in1015.6 mb 0.01 in0.3 mm 0.12 in3.0 mm 0.01 in0.3 mm
11:55 AM 49.9°F9.9°C 49.3°F9.6°C 98% 1.7 mph E2.7 kmh E 6.0 mph9.7 kmh 29.99 in1015.6 mb 0.01 in0.3 mm 0.00 in0.0 mm 0.01 in0.3 mm
12:00 PM 50.0°F10.0°C 49.4°F9.7°C 98% 1.6 mph E2.6 kmh E 6.0 mph9.7 kmh 29.99 in1015.6 mb 0.01 in0.3 mm 0.00 in0.0 mm 0.01 in0.3 mm
12:05 PM 49.9°F9.9°C 49.4°F9.7°C 98% 1.6 mph E2.6 kmh E 6.0 mph9.7 kmh 29.99 in1015.6 mb 0.01 in0.3 mm 0.00 in0.0 mm 0.01 in0.3 mm
12:10 PM 49.9°F9.9°C 49.4°F9.7°C 98% Calm Calm 6.0 mph9.7 kmh 29.99 in1015.6 mb 0.01 in0.3 mm 0.00 in0.0 mm 0.01 in0.3 mm
12:15 PM 50.1°F10.1°C 49.6°F9.8°C 98% 1.0 mph E1.6 kmh E 5.0 mph8.0 kmh 30.00 in1015.9 mb 0.01 in0.3 mm 0.00 in0.0 mm 0.01 in0.3 mm
12:20 PM 50.1°F10.1°C 49.5°F9.7°C 98% 1.8 mph ENE2.9 kmh ENE 5.0 mph8.0 kmh 30.00 in1015.9 mb 0.01 in0.3 mm 0.00 in0.0 mm 0.01 in0.3 mm
12:25 PM 49.9°F9.9°C 49.3°F9.6°C 98% 4.0 mph E6.4 kmh E 6.0 mph9.7 kmh 29.99 in1015.6 mb 0.01 in0.3 mm 0.00 in0.0 mm 0.01 in0.3 mm
12:30 PM 50.3°F10.2°C 49.7°F9.8°C 98% 2.5 mph ENE4.0 kmh ENE 6.0 mph9.7 kmh 29.99 in1015.6 mb 0.01 in0.3 mm 0.00 in0.0 mm 0.01 in0.3 mm
12:35 PM 50.2°F10.1°C 49.6°F9.8°C 98% 4.2 mph E6.8 kmh E 6.0 mph9.7 kmh 29.98 in1015.2 mb 0.01 in0.3 mm 0.00 in0.0 mm 0.01 in0.3 mm
12:40 PM 50.3°F10.2°C 49.7°F9.8°C 98% 3.7 mph E6.0 kmh E 6.0 mph9.7 kmh 29.98 in1015.2 mb 0.01 in0.3 mm 0.00 in0.0 mm 0.01 in0.3 mm
12:45 PM 50.3°F10.2°C 49.7°F9.8°C 98% 2.0 mph E3.2 kmh E 6.0 mph9.7 kmh 29.98 in1015.2 mb 0.01 in0.3 mm 0.00 in0.0 mm 0.01 in0.3 mm
12:50 PM 50.2°F10.1°C 49.6°F9.8°C 98% 3.3 mph ENE5.3 kmh ENE 7.0 mph11.3 kmh 29.98 in1015.2 mb 0.00 in0.0 mm 0.00 in0.0 mm 0.01 in0.3 mm
12:55 PM 50.2°F10.1°C 49.6°F9.8°C 98% 3.0 mph ENE4.8 kmh ENE 7.0 mph11.3 kmh 29.98 in1015.2 mb 0.00 in0.0 mm 0.00 in0.0 mm 0.01 in0.3 mm
01:00 PM 50.4°F10.2°C 49.8°F9.9°C 98% 3.1 mph ENE5.0 kmh ENE 7.0 mph11.3 kmh 29.97 in1014.9 mb 0.00 in0.0 mm 0.00 in0.0 mm 0.01 in0.3 mm
01:05 PM 50.5°F10.3°C 50.0°F10.0°C 98% 3.2 mph E5.1 kmh E 7.0 mph11.3 kmh 29.97 in1014.9 mb 0.00 in0.0 mm 0.00 in0.0 mm 0.01 in0.3 mm
01:10 PM 50.3°F10.2°C 49.8°F9.9°C 98% 3.8 mph E6.1 kmh E 8.0 mph12.9 kmh 29.97 in1014.9 mb 0.00 in0.0 mm 0.00 in0.0 mm 0.01 in0.3 mm
01:15 PM 50.3°F10.2°C 49.7°F9.8°C 98% 4.3 mph ENE6.9 kmh ENE 8.0 mph12.9 kmh 29.97 in1014.9 mb 0.00 in0.0 mm 0.00 in0.0 mm 0.01 in0.3 mm
01:20 PM 50.4°F10.2°C 49.8°F9.9°C 98% 5.9 mph E9.5 kmh E 8.0 mph12.9 kmh 29.97 in1014.9 mb 0.00 in0.0 mm 0.00 in0.0 mm 0.01 in0.3 mm
01:25 PM 50.6°F10.3°C 50.0°F10.0°C 98% 2.9 mph ENE4.7 kmh ENE 8.0 mph12.9 kmh 29.97 in1014.9 mb 0.00 in0.0 mm 0.00 in0.0 mm 0.01 in0.3 mm
01:30 PM 50.5°F10.3°C 49.9°F9.9°C 98% 4.4 mph ENE7.1 kmh ENE 8.0 mph12.9 kmh 29.97 in1014.9 mb 0.00 in0.0 mm 0.00 in0.0 mm 0.01 in0.3 mm
01:35 PM 50.8°F10.4°C 50.2°F10.1°C 98% 1.8 mph ENE2.9 kmh ENE 8.0 mph12.9 kmh 29.96 in1014.6 mb 0.00 in0.0 mm 0.00 in0.0 mm 0.01 in0.3 mm
01:40 PM 50.8°F10.4°C 50.2°F10.1°C 98% 2.3 mph E3.7 kmh E 8.0 mph12.9 kmh 29.96 in1014.6 mb 0.00 in0.0 mm 0.00 in0.0 mm 0.01 in0.3 mm
01:45 PM 50.9°F10.5°C 50.3°F10.2°C 98% 4.1 mph E6.6 kmh E 8.0 mph12.9 kmh 29.95 in1014.2 mb 0.00 in0.0 mm 0.00 in0.0 mm 0.01 in0.3 mm
01:50 PM 50.9°F10.5°C 50.3°F10.2°C 98% 6.3 mph ENE10.1 kmh ENE 9.0 mph14.5 kmh 29.95 in1014.2 mb 0.00 in0.0 mm 0.00 in0.0 mm 0.01 in0.3 mm
01:55 PM 50.9°F10.5°C 50.3°F10.2°C 98% 4.2 mph ENE6.8 kmh ENE 10.0 mph16.1 kmh 29.95 in1014.2 mb 0.00 in0.0 mm 0.00 in0.0 mm 0.01 in0.3 mm
02:00 PM 51.4°F10.8°C 50.8°F10.4°C 98% 2.7 mph E4.3 kmh E 10.0 mph16.1 kmh 29.94 in1013.9 mb 0.00 in0.0 mm 0.00 in0.0 mm 0.01 in0.3 mm
02:05 PM 51.5°F10.8°C 50.9°F10.5°C 98% 3.4 mph ESE5.5 kmh ESE 10.0 mph16.1 kmh 29.94 in1013.9 mb 0.00 in0.0 mm 0.00 in0.0 mm 0.01 in0.3 mm
02:10 PM 51.6°F10.9°C 51.0°F10.6°C 98% 6.1 mph E9.8 kmh E 10.0 mph16.1 kmh 29.94 in1013.9 mb 0.00 in0.0 mm 0.00 in0.0 mm 0.01 in0.3 mm
02:15 PM 51.4°F10.8°C 50.8°F10.4°C 98% 2.3 mph E3.7 kmh E 9.0 mph14.5 kmh 29.94 in1013.9 mb 0.00 in0.0 mm 0.00 in0.0 mm 0.01 in0.3 mm
02:20 PM 51.5°F10.8°C 50.9°F10.5°C 98% 4.9 mph ENE7.9 kmh ENE 9.0 mph14.5 kmh 29.93 in1013.5 mb 0.00 in0.0 mm 0.00 in0.0 mm 0.01 in0.3 mm
02:25 PM 51.3°F10.7°C 50.8°F10.4°C 98% 5.3 mph E8.5 kmh E 9.0 mph14.5 kmh 29.93 in1013.5 mb 0.00 in0.0 mm 0.00 in0.0 mm 0.01 in0.3 mm
02:30 PM 51.1°F10.6°C 50.6°F10.3°C 98% 4.1 mph ENE6.6 kmh ENE 9.0 mph14.5 kmh 29.93 in1013.5 mb 0.00 in0.0 mm 0.00 in0.0 mm 0.01 in0.3 mm
02:35 PM 51.2°F10.7°C 50.7°F10.4°C 98% 3.6 mph ENE5.8 kmh ENE 9.0 mph14.5 kmh 29.93 in1013.5 mb 0.00 in0.0 mm 0.00 in0.0 mm 0.01 in0.3 mm
02:40 PM 51.3°F10.7°C 50.8°F10.4°C 98% 4.0 mph ENE6.4 kmh ENE 9.0 mph14.5 kmh 29.93 in1013.5 mb 0.00 in0.0 mm 0.00 in0.0 mm 0.01 in0.3 mm
02:45 PM 51.1°F10.6°C 50.6°F10.3°C 98% 3.5 mph ENE5.6 kmh ENE 9.0 mph14.5 kmh 29.93 in1013.5 mb 0.00 in0.0 mm 0.00 in0.0 mm 0.01 in0.3 mm
02:50 PM 51.1°F10.6°C 50.5°F10.3°C 98% 1.6 mph E2.6 kmh E 8.0 mph12.9 kmh 29.93 in1013.5 mb 0.00 in0.0 mm 0.00 in0.0 mm 0.01 in0.3 mm
02:55 PM 51.4°F10.8°C 50.8°F10.4°C 98% 1.6 mph E2.6 kmh E 8.0 mph12.9 kmh 29.93 in1013.5 mb 0.00 in0.0 mm 0.00 in0.0 mm 0.01 in0.3 mm
03:00 PM 51.3°F10.7°C 50.7°F10.4°C 98% 5.7 mph ENE9.2 kmh ENE 8.0 mph12.9 kmh 29.92 in1013.2 mb 0.00 in0.0 mm 0.00 in0.0 mm 0.01 in0.3 mm
03:05 PM 51.3°F10.7°C 50.7°F10.4°C 98% 3.8 mph E6.1 kmh E 8.0 mph12.9 kmh 29.92 in1013.2 mb 0.00 in0.0 mm 0.00 in0.0 mm 0.01 in0.3 mm
03:10 PM 51.3°F10.7°C 50.8°F10.4°C 98% 5.5 mph E8.9 kmh E 8.0 mph12.9 kmh 29.91 in1012.9 mb 0.00 in0.0 mm 0.00 in0.0 mm 0.01 in0.3 mm
03:15 PM 51.4°F10.8°C 50.9°F10.5°C 98% 4.8 mph ENE7.7 kmh ENE 8.0 mph12.9 kmh 29.92 in1013.2 mb 0.00 in0.0 mm 0.00 in0.0 mm 0.01 in0.3 mm
03:20 PM 51.5°F10.8°C 51.0°F10.6°C 98% 3.2 mph E5.1 kmh E 8.0 mph12.9 kmh 29.91 in1012.9 mb 0.00 in0.0 mm 0.00 in0.0 mm 0.01 in0.3 mm
03:25 PM 51.6°F10.9°C 51.1°F10.6°C 98% 3.6 mph ENE5.8 kmh ENE 8.0 mph12.9 kmh 29.91 in1012.9 mb 0.00 in0.0 mm 0.00 in0.0 mm 0.01 in0.3 mm
03:30 PM 51.6°F10.9°C 51.1°F10.6°C 98% 5.5 mph NE8.9 kmh NE 8.0 mph12.9 kmh 29.91 in1012.9 mb 0.00 in0.0 mm 0.00 in0.0 mm 0.01 in0.3 mm
03:35 PM 51.7°F10.9°C 51.1°F10.6°C 98% 3.8 mph ENE6.1 kmh ENE 8.0 mph12.9 kmh 29.92 in1013.2 mb 0.00 in0.0 mm 0.00 in0.0 mm 0.01 in0.3 mm
03:40 PM 51.7°F10.9°C 51.1°F10.6°C 98% 2.3 mph E3.7 kmh E 8.0 mph12.9 kmh 29.91 in1012.9 mb 0.00 in0.0 mm 0.00 in0.0 mm 0.01 in0.3 mm
03:45 PM 51.8°F11.0°C 51.2°F10.7°C 98% 3.0 mph E4.8 kmh E 8.0 mph12.9 kmh 29.91 in1012.9 mb 0.00 in0.0 mm 0.00 in0.0 mm 0.01 in0.3 mm
03:50 PM 52.0°F11.1°C 51.4°F10.8°C 98% 3.0 mph NE4.8 kmh NE 7.0 mph11.3 kmh 29.90 in1012.5 mb 0.00 in0.0 mm 0.00 in0.0 mm 0.01 in0.3 mm
03:55 PM 51.8°F11.0°C 51.2°F10.7°C 98% 3.4 mph ENE5.5 kmh ENE 7.0 mph11.3 kmh 29.90 in1012.5 mb 0.00 in0.0 mm 0.00 in0.0 mm 0.01 in0.3 mm
04:00 PM 51.9°F11.1°C 51.3°F10.7°C 98% 3.2 mph E5.1 kmh E 7.0 mph11.3 kmh 29.91 in1012.9 mb 0.00 in0.0 mm 0.00 in0.0 mm 0.01 in0.3 mm
04:05 PM 51.9°F11.1°C 51.3°F10.7°C 98% 4.7 mph E7.6 kmh E 7.0 mph11.3 kmh 29.91 in1012.9 mb 0.00 in0.0 mm 0.00 in0.0 mm 0.01 in0.3 mm
04:10 PM 51.9°F11.1°C 51.3°F10.7°C 98% 4.8 mph E7.7 kmh E 8.0 mph12.9 kmh 29.91 in1012.9 mb 0.00 in0.0 mm 0.00 in0.0 mm 0.01 in0.3 mm
04:15 PM 51.9°F11.1°C 51.3°F10.7°C 98% 5.3 mph ENE8.5 kmh ENE 8.0 mph12.9 kmh 29.90 in1012.5 mb 0.00 in0.0 mm 0.00 in0.0 mm 0.01 in0.3 mm
04:20 PM 52.0°F11.1°C 51.4°F10.8°C 98% 3.6 mph E5.8 kmh E 8.0 mph12.9 kmh 29.90 in1012.5 mb 0.00 in0.0 mm 0.00 in0.0 mm 0.01 in0.3 mm
04:25 PM 52.1°F11.2°C 51.5°F10.8°C 98% 3.6 mph E5.8 kmh E 8.0 mph12.9 kmh 29.91 in1012.9 mb 0.00 in0.0 mm 0.00 in0.0 mm 0.01 in0.3 mm
04:30 PM 52.0°F11.1°C 51.4°F10.8°C 98% 4.3 mph E6.9 kmh E 8.0 mph12.9 kmh 29.91 in1012.9 mb 0.00 in0.0 mm 0.00 in0.0 mm 0.01 in0.3 mm
04:35 PM 52.1°F11.2°C 51.5°F10.8°C 98% 3.3 mph E5.3 kmh E 8.0 mph12.9 kmh 29.91 in1012.9 mb 0.00 in0.0 mm 0.00 in0.0 mm 0.01 in0.3 mm
04:40 PM 52.1°F11.2°C 51.5°F10.8°C 98% 2.4 mph ENE3.9 kmh ENE 8.0 mph12.9 kmh 29.91 in1012.9 mb 0.00 in0.0 mm 0.00 in0.0 mm 0.01 in0.3 mm
04:45 PM 52.0°F11.1°C 51.4°F10.8°C 98% 3.8 mph ENE6.1 kmh ENE 8.0 mph12.9 kmh 29.91 in1012.9 mb 0.00 in0.0 mm 0.00 in0.0 mm 0.01 in0.3 mm
04:50 PM 52.0°F11.1°C 51.4°F10.8°C 98% 3.2 mph E5.1 kmh E 7.0 mph11.3 kmh 29.91 in1012.9 mb 0.00 in0.0 mm 0.00 in0.0 mm 0.01 in0.3 mm
04:55 PM 52.1°F11.2°C 51.5°F10.8°C 98% 1.7 mph E2.7 kmh E 7.0 mph11.3 kmh 29.91 in1012.9 mb 0.00 in0.0 mm 0.00 in0.0 mm 0.01 in0.3 mm
05:00 PM 52.2°F11.2°C 51.6°F10.9°C 98% 1.4 mph ENE2.3 kmh ENE 7.0 mph11.3 kmh 29.90 in1012.5 mb 0.00 in0.0 mm 0.00 in0.0 mm 0.01 in0.3 mm
05:05 PM 52.1°F11.2°C 51.5°F10.8°C 98% 3.0 mph E4.8 kmh E 7.0 mph11.3 kmh 29.90 in1012.5 mb 0.00 in0.0 mm 0.00 in0.0 mm 0.01 in0.3 mm
05:10 PM 52.1°F11.2°C 51.5°F10.8°C 98% 3.1 mph E5.0 kmh E 7.0 mph11.3 kmh 29.90 in1012.5 mb 0.00 in0.0 mm 0.00 in0.0 mm 0.01 in0.3 mm
05:15 PM 52.1°F11.2°C 51.6°F10.9°C 98% 2.9 mph E4.7 kmh E 7.0 mph11.3 kmh 29.89 in1012.2 mb 0.00 in0.0 mm 0.00 in0.0 mm 0.01 in0.3 mm
05:20 PM 52.1°F11.2°C 51.6°F10.9°C 98% 3.9 mph E6.3 kmh E 8.0 mph12.9 kmh 29.89 in1012.2 mb 0.00 in0.0 mm 0.00 in0.0 mm 0.01 in0.3 mm
05:25 PM 52.1°F11.2°C 51.5°F10.8°C 98% 4.7 mph E7.6 kmh E 8.0 mph12.9 kmh 29.89 in1012.2 mb 0.00 in0.0 mm 0.00 in0.0 mm 0.01 in0.3 mm
05:31 PM 52.1°F11.2°C 51.5°F10.8°C 98% 5.1 mph E8.2 kmh E 8.0 mph12.9 kmh 29.89 in1012.2 mb 0.00 in0.0 mm 0.00 in0.0 mm 0.01 in0.3 mm
05:36 PM 52.2°F11.2°C 51.6°F10.9°C 98% 4.5 mph E7.2 kmh E 8.0 mph12.9 kmh 29.88 in1011.9 mb 0.00 in0.0 mm 0.00 in0.0 mm 0.01 in0.3 mm
05:41 PM 52.2°F11.2°C 51.6°F10.9°C 98% 1.7 mph E2.7 kmh E 8.0 mph12.9 kmh 29.89 in1012.2 mb 0.00 in0.0 mm 0.00 in0.0 mm 0.01 in0.3 mm
05:46 PM 52.3°F11.3°C 51.7°F10.9°C 98% 2.1 mph E3.4 kmh E 8.0 mph12.9 kmh 29.89 in1012.2 mb 0.00 in0.0 mm 0.00 in0.0 mm 0.01 in0.3 mm
05:51 PM 52.3°F11.3°C 51.7°F10.9°C 98% 3.1 mph E5.0 kmh E 8.0 mph12.9 kmh 29.89 in1012.2 mb 0.00 in0.0 mm 0.00 in0.0 mm 0.01 in0.3 mm
05:56 PM 52.3°F11.3°C 51.7°F10.9°C 98% 1.9 mph ENE3.1 kmh ENE 7.0 mph11.3 kmh 29.90 in1012.5 mb 0.00 in0.0 mm 0.00 in0.0 mm 0.01 in0.3 mm
06:01 PM 52.3°F11.3°C 51.7°F10.9°C 98% 3.8 mph E6.1 kmh E 7.0 mph11.3 kmh 29.90 in1012.5 mb 0.00 in0.0 mm 0.00 in0.0 mm 0.01 in0.3 mm
06:06 PM 52.3°F11.3°C 51.8°F11.0°C 98% 4.4 mph ENE7.1 kmh ENE 8.0 mph12.9 kmh 29.90 in1012.5 mb 0.00 in0.0 mm 0.00 in0.0 mm 0.01 in0.3 mm
06:11 PM 52.3°F11.3°C 51.7°F10.9°C 98% 3.3 mph E5.3 kmh E 8.0 mph12.9 kmh 29.90 in1012.5 mb 0.00 in0.0 mm 0.00 in0.0 mm 0.01 in0.3 mm
06:16 PM 52.3°F11.3°C 51.7°F10.9°C 98% 1.2 mph E1.9 kmh E 8.0 mph12.9 kmh 29.90 in1012.5 mb 0.00 in0.0 mm 0.00 in0.0 mm 0.01 in0.3 mm
06:21 PM 52.3°F11.3°C 51.7°F10.9°C 98% 2.2 mph E3.5 kmh E 8.0 mph12.9 kmh 29.90 in1012.5 mb 0.00 in0.0 mm 0.00 in0.0 mm 0.01 in0.3 mm
06:26 PM 52.3°F11.3°C 51.7°F10.9°C 98% 1.2 mph E1.9 kmh E 6.0 mph9.7 kmh 29.90 in1012.5 mb 0.00 in0.0 mm 0.00 in0.0 mm 0.01 in0.3 mm
06:31 PM 52.1°F11.2°C 51.5°F10.8°C 98% 5.3 mph ENE8.5 kmh ENE 8.0 mph12.9 kmh 29.91 in1012.9 mb 0.00 in0.0 mm 0.00 in0.0 mm 0.01 in0.3 mm
06:36 PM 52.0°F11.1°C 51.4°F10.8°C 98% 4.6 mph ENE7.4 kmh ENE 8.0 mph12.9 kmh 29.91 in1012.9 mb 0.00 in0.0 mm 0.00 in0.0 mm 0.01 in0.3 mm
06:41 PM 52.0°F11.1°C 51.4°F10.8°C 98% 4.4 mph ENE7.1 kmh ENE 8.0 mph12.9 kmh 29.91 in1012.9 mb 0.00 in0.0 mm 0.00 in0.0 mm 0.01 in0.3 mm
06:46 PM 52.0°F11.1°C 51.4°F10.8°C 98% 2.8 mph E4.5 kmh E 8.0 mph12.9 kmh 29.91 in1012.9 mb 0.00 in0.0 mm 0.00 in0.0 mm 0.01 in0.3 mm
06:51 PM 52.0°F11.1°C 51.5°F10.8°C 98% 4.1 mph E6.6 kmh E 9.0 mph14.5 kmh 29.89 in1012.2 mb 0.00 in0.0 mm 0.00 in0.0 mm 0.01 in0.3 mm
06:56 PM 52.0°F11.1°C 51.5°F10.8°C 98% 5.4 mph E8.7 kmh E 10.0 mph16.1 kmh 29.90 in1012.5 mb 0.00 in0.0 mm 0.00 in0.0 mm 0.01 in0.3 mm
07:01 PM 52.0°F11.1°C 51.4°F10.8°C 98% 2.3 mph ENE3.7 kmh ENE 10.0 mph16.1 kmh 29.90 in1012.5 mb 0.00 in0.0 mm 0.00 in0.0 mm 0.01 in0.3 mm
07:06 PM 51.9°F11.1°C 51.3°F10.7°C 98% 3.7 mph E6.0 kmh E 10.0 mph16.1 kmh 29.90 in1012.5 mb 0.00 in0.0 mm 0.00 in0.0 mm 0.01 in0.3 mm
07:11 PM 51.9°F11.1°C 51.3°F10.7°C 98% 3.4 mph ENE5.5 kmh ENE 10.0 mph16.1 kmh 29.90 in1012.5 mb 0.00 in0.0 mm 0.00 in0.0 mm 0.01 in0.3 mm
07:16 PM 51.9°F11.1°C 51.4°F10.8°C 98% 2.0 mph ENE3.2 kmh ENE 8.0 mph12.9 kmh 29.91 in1012.9 mb 0.00 in0.0 mm 0.00 in0.0 mm 0.01 in0.3 mm
07:21 PM 51.9°F11.1°C 51.4°F10.8°C 98% 3.3 mph E5.3 kmh E 8.0 mph12.9 kmh 29.91 in1012.9 mb 0.00 in0.0 mm 0.00 in0.0 mm 0.01 in0.3 mm
07:26 PM 51.8°F11.0°C 51.2°F10.7°C 98% 2.0 mph E3.2 kmh E 8.0 mph12.9 kmh 29.91 in1012.9 mb 0.00 in0.0 mm 0.00 in0.0 mm 0.01 in0.3 mm
07:31 PM 51.8°F11.0°C 51.2°F10.7°C 98% 3.4 mph E5.5 kmh E 7.0 mph11.3 kmh 29.91 in1012.9 mb 0.00 in0.0 mm 0.00 in0.0 mm 0.01 in0.3 mm
07:36 PM 51.8°F11.0°C 51.3°F10.7°C 98% 2.3 mph E3.7 kmh E 7.0 mph11.3 kmh 29.91 in1012.9 mb 0.00 in0.0 mm 0.00 in0.0 mm 0.01 in0.3 mm
07:41 PM 51.9°F11.1°C 51.4°F10.8°C 98% 2.5 mph E4.0 kmh E 7.0 mph11.3 kmh 29.90 in1012.5 mb 0.00 in0.0 mm 0.00 in0.0 mm 0.01 in0.3 mm
07:46 PM 51.8°F11.0°C 51.2°F10.7°C 98% 2.6 mph E4.2 kmh E 7.0 mph11.3 kmh 29.91 in1012.9 mb 0.00 in0.0 mm 0.00 in0.0 mm 0.01 in0.3 mm
07:51 PM 51.8°F11.0°C 51.2°F10.7°C 98% 2.6 mph ENE4.2 kmh ENE 6.0 mph9.7 kmh 29.91 in1012.9 mb 0.00 in0.0 mm 0.00 in0.0 mm 0.01 in0.3 mm
07:56 PM 51.8°F11.0°C 51.2°F10.7°C 98% 3.5 mph ESE5.6 kmh ESE 6.0 mph9.7 kmh 29.91 in1012.9 mb 0.00 in0.0 mm 0.00 in0.0 mm 0.01 in0.3 mm
08:01 PM 51.9°F11.1°C 51.3°F10.7°C 98% 2.3 mph E3.7 kmh E 6.0 mph9.7 kmh 29.91 in1012.9 mb 0.00 in0.0 mm 0.00 in0.0 mm 0.01 in0.3 mm
08:06 PM 51.9°F11.1°C 51.3°F10.7°C 98% 1.6 mph E2.6 kmh E 6.0 mph9.7 kmh 29.91 in1012.9 mb 0.00 in0.0 mm 0.00 in0.0 mm 0.01 in0.3 mm
08:11 PM 51.9°F11.1°C 51.3°F10.7°C 98% 1.8 mph E2.9 kmh E 6.0 mph9.7 kmh 29.91 in1012.9 mb 0.00 in0.0 mm 0.00 in0.0 mm 0.01 in0.3 mm
08:16 PM 52.0°F11.1°C 51.4°F10.8°C 98% 3.3 mph E5.3 kmh E 6.0 mph9.7 kmh 29.90 in1012.5 mb 0.00 in0.0 mm 0.00 in0.0 mm 0.01 in0.3 mm
08:21 PM 52.0°F11.1°C 51.4°F10.8°C 98% 1.6 mph E2.6 kmh E 5.0 mph8.0 kmh 29.90 in1012.5 mb 0.00 in0.0 mm 0.00 in0.0 mm 0.01 in0.3 mm
08:26 PM 52.1°F11.2°C 51.5°F10.8°C 98% 3.0 mph E4.8 kmh E 5.0 mph8.0 kmh 29.90 in1012.5 mb 0.00 in0.0 mm 0.00 in0.0 mm 0.01 in0.3 mm
08:31 PM 52.1°F11.2°C 51.6°F10.9°C 98% 1.0 mph E1.6 kmh E 5.0 mph8.0 kmh 29.90 in1012.5 mb 0.00 in0.0 mm 0.00 in0.0 mm 0.01 in0.3 mm
08:36 PM 52.1°F11.2°C 51.6°F10.9°C 98% 2.1 mph E3.4 kmh E 5.0 mph8.0 kmh 29.90 in1012.5 mb 0.00 in0.0 mm 0.00 in0.0 mm 0.01 in0.3 mm
08:41 PM 52.1°F11.2°C 51.6°F10.9°C 98% 1.3 mph ESE2.1 kmh ESE 5.0 mph8.0 kmh 29.89 in1012.2 mb 0.00 in0.0 mm 0.00 in0.0 mm 0.01 in0.3 mm
08:46 PM 52.2°F11.2°C 51.7°F10.9°C 98% 1.5 mph E2.4 kmh E 4.0 mph6.4 kmh 29.89 in1012.2 mb 0.00 in0.0 mm 0.00 in0.0 mm 0.01 in0.3 mm
08:51 PM 52.2°F11.2°C 51.7°F10.9°C 98% 2.1 mph SE3.4 kmh SE 4.0 mph6.4 kmh 29.89 in1012.2 mb 0.00 in0.0 mm 0.00 in0.0 mm 0.01 in0.3 mm
08:56 PM 52.2°F11.2°C 51.7°F10.9°C 98% Calm Calm 4.0 mph6.4 kmh 29.89 in1012.2 mb 0.00 in0.0 mm 0.00 in0.0 mm 0.01 in0.3 mm
09:01 PM 52.3°F11.3°C 51.7°F10.9°C 98% 1.7 mph E2.7 kmh E 4.0 mph6.4 kmh 29.89 in1012.2 mb 0.00 in0.0 mm 0.00 in0.0 mm 0.01 in0.3 mm
09:06 PM 52.3°F11.3°C 51.8°F11.0°C 98% 2.0 mph SE3.2 kmh SE 4.0 mph6.4 kmh 29.89 in1012.2 mb 0.00 in0.0 mm 0.00 in0.0 mm 0.01 in0.3 mm
09:11 PM 52.4°F11.3°C 51.9°F11.1°C 98% 1.0 mph SE1.6 kmh SE 4.0 mph6.4 kmh 29.89 in1012.2 mb 0.00 in0.0 mm 0.00 in0.0 mm 0.01 in0.3 mm
09:16 PM 52.5°F11.4°C 51.9°F11.1°C 98% 1.1 mph ESE1.8 kmh ESE 4.0 mph6.4 kmh 29.90 in1012.5 mb 0.00 in0.0 mm 0.00 in0.0 mm 0.01 in0.3 mm
09:21 PM 52.5°F11.4°C 51.9°F11.1°C 98% 2.5 mph SE4.0 kmh SE 4.0 mph6.4 kmh 29.89 in1012.2 mb 0.00 in0.0 mm 0.00 in0.0 mm 0.01 in0.3 mm
09:26 PM 52.6°F11.4°C 52.0°F11.1°C 98% 1.8 mph SSE2.9 kmh SSE 5.0 mph8.0 kmh 29.89 in1012.2 mb 0.00 in0.0 mm 0.00 in0.0 mm 0.01 in0.3 mm
09:31 PM 52.6°F11.4°C 52.0°F11.1°C 98% 1.6 mph SSE2.6 kmh SSE 5.0 mph8.0 kmh 29.89 in1012.2 mb 0.00 in0.0 mm 0.00 in0.0 mm 0.01 in0.3 mm
09:36 PM 52.7°F11.5°C 52.1°F11.2°C 98% 1.3 mph SSE2.1 kmh SSE 5.0 mph8.0 kmh 29.89 in1012.2 mb 0.00 in0.0 mm 0.00 in0.0 mm 0.01 in0.3 mm
09:41 PM 52.7°F11.5°C 52.1°F11.2°C 98% 2.0 mph S3.2 kmh S 5.0 mph8.0 kmh 29.90 in1012.5 mb 0.00 in0.0 mm 0.00 in0.0 mm 0.01 in0.3 mm
09:46 PM 52.8°F11.6°C 52.2°F11.2°C 98% 1.7 mph SSE2.7 kmh SSE 5.0 mph8.0 kmh 29.89 in1012.2 mb 0.00 in0.0 mm 0.00 in0.0 mm 0.01 in0.3 mm
09:51 PM 52.9°F11.6°C 52.3°F11.3°C 98% 1.5 mph SSE2.4 kmh SSE 5.0 mph8.0 kmh 29.89 in1012.2 mb 0.00 in0.0 mm 0.00 in0.0 mm 0.01 in0.3 mm
09:56 PM 53.1°F11.7°C 52.5°F11.4°C 98% 1.2 mph S1.9 kmh S 5.0 mph8.0 kmh 29.89 in1012.2 mb 0.00 in0.0 mm 0.00 in0.0 mm 0.01 in0.3 mm
10:01 PM 53.2°F11.8°C 52.6°F11.4°C 98% 1.1 mph SSE1.8 kmh SSE 5.0 mph8.0 kmh 29.90 in1012.5 mb 0.00 in0.0 mm 0.00 in0.0 mm 0.01 in0.3 mm
10:06 PM 53.4°F11.9°C 52.8°F11.6°C 98% 1.1 mph S1.8 kmh S 5.0 mph8.0 kmh 29.90 in1012.5 mb 0.00 in0.0 mm 0.00 in0.0 mm 0.01 in0.3 mm
10:11 PM 53.5°F11.9°C 53.2°F11.8°C 99% 1.0 mph SE1.6 kmh SE 3.0 mph4.8 kmh 29.90 in1012.5 mb 0.00 in0.0 mm 0.00 in0.0 mm 0.01 in0.3 mm
10:16 PM 53.6°F12.0°C 53.3°F11.8°C 99% 1.3 mph SSW2.1 kmh SSW 3.0 mph4.8 kmh 29.90 in1012.5 mb 0.00 in0.0 mm 0.00 in0.0 mm 0.01 in0.3 mm
10:21 PM 53.7°F12.1°C 53.1°F11.7°C 98% 1.7 mph SSE2.7 kmh SSE 3.0 mph4.8 kmh 29.90 in1012.5 mb 0.00 in0.0 mm 0.00 in0.0 mm 0.01 in0.3 mm
10:27 PM 53.7°F12.1°C 53.4°F11.9°C 99% 1.2 mph SW1.9 kmh SW 3.0 mph4.8 kmh 29.90 in1012.5 mb 0.00 in0.0 mm 0.00 in0.0 mm 0.01 in0.3 mm
10:32 PM 53.8°F12.1°C 53.5°F11.9°C 99% 1.8 mph W2.9 kmh W 3.0 mph4.8 kmh 29.90 in1012.5 mb 0.00 in0.0 mm 0.00 in0.0 mm 0.01 in0.3 mm
10:37 PM 53.9°F12.2°C 53.6°F12.0°C 99% 1.5 mph SE2.4 kmh SE 3.0 mph4.8 kmh 29.89 in1012.2 mb 0.00 in0.0 mm 0.00 in0.0 mm 0.01 in0.3 mm
10:42 PM 54.0°F12.2°C 53.7°F12.1°C 99% 1.2 mph SSW1.9 kmh SSW 3.0 mph4.8 kmh 29.90 in1012.5 mb 0.00 in0.0 mm 0.00 in0.0 mm 0.01 in0.3 mm
10:47 PM 54.1°F12.3°C 53.8°F12.1°C 99% 1.6 mph WSW2.6 kmh WSW 3.0 mph4.8 kmh 29.90 in1012.5 mb 0.00 in0.0 mm 0.00 in0.0 mm 0.01 in0.3 mm
10:52 PM 54.1°F12.3°C 53.8°F12.1°C 99% 1.0 mph WSW1.6 kmh WSW 3.0 mph4.8 kmh 29.90 in1012.5 mb 0.00 in0.0 mm 0.00 in0.0 mm 0.01 in0.3 mm
10:57 PM 54.1°F12.3°C 53.8°F12.1°C 99% 1.0 mph SE1.6 kmh SE 3.0 mph4.8 kmh 29.90 in1012.5 mb 0.00 in0.0 mm 0.00 in0.0 mm 0.01 in0.3 mm
11:02 PM 54.2°F12.3°C 53.9°F12.2°C 99% 2.4 mph SE3.9 kmh SE 5.0 mph8.0 kmh 29.89 in1012.2 mb 0.00 in0.0 mm 0.00 in0.0 mm 0.01 in0.3 mm
11:07 PM 54.6°F12.6°C 54.3°F12.4°C 99% 1.7 mph SSW2.7 kmh SSW 5.0 mph8.0 kmh 29.89 in1012.2 mb 0.00 in0.0 mm 0.00 in0.0 mm 0.01 in0.3 mm
11:12 PM 54.6°F12.6°C 54.3°F12.4°C 99% 1.5 mph S2.4 kmh S 5.0 mph8.0 kmh 29.89 in1012.2 mb 0.00 in0.0 mm 0.00 in0.0 mm 0.01 in0.3 mm
11:17 PM 54.7°F12.6°C 54.4°F12.4°C 99% 1.0 mph SW1.6 kmh SW 5.0 mph8.0 kmh 29.89 in1012.2 mb 0.00 in0.0 mm 0.00 in0.0 mm 0.01 in0.3 mm
11:22 PM 54.8°F12.7°C 54.5°F12.5°C 99% 1.0 mph S1.6 kmh S 4.0 mph6.4 kmh 29.89 in1012.2 mb 0.00 in0.0 mm 0.00 in0.0 mm 0.01 in0.3 mm
11:27 PM 54.8°F12.7°C 54.5°F12.5°C 99% 1.0 mph SSW1.6 kmh SSW 4.0 mph6.4 kmh 29.89 in1012.2 mb 0.00 in0.0 mm 0.00 in0.0 mm 0.01 in0.3 mm
11:32 PM 54.8°F12.7°C 54.5°F12.5°C 99% Calm Calm 4.0 mph6.4 kmh 29.90 in1012.5 mb 0.00 in0.0 mm 0.00 in0.0 mm 0.01 in0.3 mm
11:37 PM 54.8°F12.7°C 54.5°F12.5°C 99% Calm Calm 2.0 mph3.2 kmh 29.90 in1012.5 mb 0.00 in0.0 mm 0.00 in0.0 mm 0.01 in0.3 mm
11:42 PM 54.8°F12.7°C 54.5°F12.5°C 99% Calm Calm 2.0 mph3.2 kmh 29.89 in1012.2 mb 0.00 in0.0 mm 0.00 in0.0 mm 0.01 in0.3 mm
11:47 PM 54.9°F12.7°C 54.6°F12.6°C 99% 1.3 mph SW2.1 kmh SW 2.0 mph3.2 kmh 29.89 in1012.2 mb 0.00 in0.0 mm 0.00 in0.0 mm 0.01 in0.3 mm
11:52 PM 54.9°F12.7°C 54.6°F12.6°C 99% 1.0 mph SW1.6 kmh SW 2.0 mph3.2 kmh 29.89 in1012.2 mb 0.00 in0.0 mm 0.00 in0.0 mm 0.01 in0.3 mm
11:57 PM 55.0°F12.8°C 54.7°F12.6°C 99% 1.0 mph SW1.6 kmh SW 2.0 mph3.2 kmh 29.89 in1012.2 mb 0.00 in0.0 mm 0.00 in0.0 mm 0.01 in0.3 mm